Terminal Aerodrome Forecast
Issued by NWS New Orleans/Baton Rouge, LA

Home | Current Version | Previous Version | Text Only | Print | Product List | Glossary On
Versions: 1 2 3 4 5 6 7 8 9 10 11 12 13 14 15 16 17 18 19 20 21 22
000
FTUS44 KLIX 292346
TAFBTR
TAF
KBTR 292346Z 3000/3024 18013KT P6SM FEW040 BKN080
     FM300400 15011KT P6SM OVC025
     FM300700 16011KT P6SM OVC025
      TEMPO 3007/3010 28018G30KT 2SM TSRA BKN015CB
     FM301400 20010KT P6SM OVC040
     FM302200 21010KT P6SM SCT090=

USA.gov is the U.S. government's official web portal to all federal, state and local government web resources and services.